Time;durP1;ratioP1;P1;durP2;ratioP2;P2;SDS_P1;SDS_P2;PMS_P1;PMS_P2;Temp;Humidity;BMP_temperature;BMP_pressure;BME280_temperature;BME280_humidity;BME280_pressure;Samples;Min_cycle;Max_cycle;Signal;HPM_P1;HPM_P2
2020/12/21 00:02:19;;;;;;;18.10;4.47;;;;;;;10.49;76.98;101540.00;5034662;28;20149;-80
2020/12/21 00:04:46;;;;;;;18.20;4.38;;;;;;;10.43;77.19;101538.41;5017014;28;20054;-79
2020/12/21 00:07:15;;;;;;;10.20;3.80;;;;;;;10.50;77.08;101523.19;5012974;28;20053;-75
2020/12/21 00:09:42;;;;;;;18.58;5.00;;;;;;;10.34;77.52;101512.66;5016649;28;20057;-80
2020/12/21 00:12:08;;;;;;;12.80;4.78;;;;;;;10.41;77.39;101502.09;5016813;28;20049;-79
2020/12/21 00:14:35;;;;;;;15.68;4.82;;;;;;;10.40;77.43;101501.28;5011617;28;20045;-66
2020/12/21 00:17:02;;;;;;;17.25;5.40;;;;;;;10.38;77.24;101514.50;5024401;28;20061;-77
2020/12/21 00:19:29;;;;;;;15.30;4.60;;;;;;;10.28;77.54;101522.06;5035720;28;20415;-78
2020/12/21 00:21:56;;;;;;;16.92;4.80;;;;;;;10.33;77.42;101505.47;5001978;28;20057;-76
2020/12/21 00:24:23;;;;;;;13.35;5.40;;;;;;;10.33;77.58;101514.56;5034882;28;20060;-75
2020/12/21 00:26:51;;;;;;;14.93;4.65;;;;;;;10.04;78.56;101513.75;5033409;28;20049;-74
2020/12/21 00:29:19;;;;;;;19.75;5.18;;;;;;;10.20;78.14;101513.31;5033756;28;20053;-75
2020/12/21 00:31:47;;;;;;;16.33;5.60;;;;;;;10.11;78.37;101509.56;5034218;28;20049;-80
2020/12/21 00:34:14;;;;;;;12.38;4.65;;;;;;;10.07;78.87;101513.16;5033761;28;20076;-73
2020/12/21 00:36:47;;;;;;;17.70;4.88;;;;;;;9.97;79.27;101516.03;5015312;28;20049;-77
2020/12/21 00:39:14;;;;;;;14.13;5.88;;;;;;;10.20;78.40;101507.81;5033580;28;20404;-79
2020/12/21 00:41:45;;;;;;;16.45;5.80;;;;;;;9.97;78.95;101511.31;5033357;28;20044;-79
2020/12/21 00:44:12;;;;;;;16.13;5.65;;;;;;;9.86;79.39;101503.47;5033719;28;20057;-76
2020/12/21 00:46:39;;;;;;;15.35;5.60;;;;;;;9.94;79.71;101508.31;5033945;28;20046;-79
2020/12/21 00:49:06;;;;;;;18.63;5.65;;;;;;;10.20;79.20;101501.47;5031702;28;20049;-72
2020/12/21 00:51:35;;;;;;;13.60;5.43;;;;;;;9.92;79.49;101491.31;5032980;28;20054;-66
2020/12/21 00:54:02;;;;;;;15.15;5.90;;;;;;;9.89;79.38;101492.69;5015531;28;20052;-72
2020/12/21 00:56:29;;;;;;;21.08;6.45;;;;;;;9.86;79.77;101492.47;5016101;28;20425;-69
2020/12/21 00:58:56;;;;;;;15.88;6.15;;;;;;;9.73;79.98;101484.84;5033659;28;20050;-66
2020/12/21 01:01:28;;;;;;;15.43;5.45;;;;;;;9.77;80.33;101477.69;5033320;28;20501;-69
2020/12/21 01:04:00;;;;;;;17.95;5.72;;;;;;;9.76;80.40;101479.59;5033329;28;20053;-76
2020/12/21 01:06:29;;;;;;;14.48;5.38;;;;;;;9.86;79.96;101474.03;5033229;28;20048;-69
2020/12/21 01:08:58;;;;;;;16.42;6.22;;;;;;;9.88;80.08;101473.72;5015712;28;20046;-76
2020/12/21 01:11:28;;;;;;;17.25;5.97;;;;;;;9.77;80.46;101478.50;5032987;28;20046;-67
2020/12/21 01:13:57;;;;;;;17.95;5.25;;;;;;;9.77;80.43;101480.44;5033260;28;20493;-76
2020/12/21 01:16:24;;;;;;;17.25;5.63;;;;;;;9.74;80.46;101487.34;5033350;28;20045;-68
2020/12/21 01:18:52;;;;;;;23.02;6.35;;;;;;;9.56;81.13;101477.03;5015770;28;20524;-75
2020/12/21 01:21:28;;;;;;;16.85;5.22;;;;;;;9.71;80.76;101481.59;4995196;28;20053;-78
2020/12/21 01:23:56;;;;;;;17.60;5.78;;;;;;;9.84;80.49;101476.25;4996771;28;20504;-79
2020/12/21 01:26:23;;;;;;;17.00;5.57;;;;;;;9.77;80.33;101470.25;5012984;28;20073;-79
2020/12/21 01:28:50;;;;;;;14.70;4.97;;;;;;;9.61;80.91;101471.50;5012948;28;20050;-82
2020/12/21 01:31:18;;;;;;;20.98;5.75;;;;;;;9.73;81.08;101468.34;5003529;28;20048;-76
2020/12/21 01:33:46;;;;;;;16.70;5.68;;;;;;;9.81;80.37;101468.56;5032924;28;20076;-79
2020/12/21 01:36:13;;;;;;;15.07;5.15;;;;;;;9.77;80.33;101466.69;5015562;28;20064;-77
2020/12/21 01:38:41;;;;;;;18.08;5.65;;;;;;;9.80;80.38;101466.91;5033238;28;20052;-68
2020/12/21 01:41:08;;;;;;;18.02;5.95;;;;;;;9.85;79.92;101455.06;5032978;28;20045;-64
2020/12/21 01:43:35;;;;;;;14.48;5.22;;;;;;;9.89;79.86;101459.69;5015442;28;20065;-65
2020/12/21 01:46:14;;;;;;;16.85;5.13;;;;;;;9.77;80.28;101453.75;5032728;28;20053;-65
2020/12/21 01:48:43;;;;;;;15.95;5.20;;;;;;;9.80;80.28;101444.91;5015752;28;20049;-64
2020/12/21 01:51:25;;;;;;;21.17;5.50;;;;;;;9.73;81.08;101457.34;5033281;28;20393;-69
2020/12/21 01:53:52;;;;;;;19.38;5.50;;;;;;;9.74;80.73;101453.50;5015136;28;20050;-65
2020/12/21 01:56:21;;;;;;;16.25;4.85;;;;;;;9.71;81.00;101440.34;5031789;28;20405;-66
2020/12/21 01:58:49;;;;;;;13.38;4.88;;;;;;;9.80;80.84;101447.66;5031993;28;20060;-66
2020/12/21 02:01:17;;;;;;;15.60;5.32;;;;;;;9.73;80.95;101441.66;5031187;28;20416;-65
2020/12/21 02:03:44;;;;;;;12.80;4.70;;;;;;;9.79;80.78;101454.28;5032291;28;20060;-65
2020/12/21 02:06:11;;;;;;;14.63;4.35;;;;;;;9.67;81.31;101464.03;5032193;28;20041;-64
2020/12/21 02:08:40;;;;;;;17.90;4.53;;;;;;;9.44;82.08;101467.53;5032036;28;20049;-65
2020/12/21 02:11:07;;;;;;;15.90;4.80;;;;;;;9.69;81.43;101470.84;5014962;28;20049;-69
2020/12/21 02:13:34;;;;;;;16.00;3.92;;;;;;;9.76;81.07;101467.78;5031948;28;20061;-74
2020/12/21 02:16:02;;;;;;;15.60;4.18;;;;;;;9.85;81.04;101472.38;5031852;28;20068;-67
2020/12/21 02:18:30;;;;;;;15.27;3.97;;;;;;;9.79;81.28;101465.28;5014746;28;20048;-71
2020/12/21 02:20:57;;;;;;;17.67;3.50;;;;;;;9.74;81.24;101448.84;5031688;28;20057;-65
2020/12/21 02:23:24;;;;;;;12.38;3.88;;;;;;;9.60;82.04;101444.28;5032016;28;20057;-70
2020/12/21 02:25:50;;;;;;;16.65;3.92;;;;;;;9.70;81.72;101442.25;5014888;28;20072;-65
2020/12/21 02:28:17;;;;;;;14.32;3.60;;;;;;;9.66;81.75;101441.19;5031177;28;20058;-73
2020/12/21 02:30:45;;;;;;;17.55;4.32;;;;;;;9.80;81.17;101442.16;5031415;28;20052;-71
2020/12/21 02:33:11;;;;;;;16.98;4.05;;;;;;;9.81;81.25;101452.06;5031490;28;20046;-73
2020/12/21 02:35:38;;;;;;;15.88;3.67;;;;;;;9.80;80.87;101446.81;5031548;28;20052;-73
2020/12/21 02:38:08;;;;;;;14.45;3.00;;;;;;;9.82;81.11;101442.69;5031465;28;20057;-73
2020/12/21 02:40:40;;;;;;;16.50;4.10;;;;;;;9.79;80.99;101442.44;5030557;28;20045;-74
2020/12/21 02:43:20;;;;;;;16.42;3.58;;;;;;;9.94;80.48;101442.28;5031165;28;20052;-78
2020/12/21 02:45:47;;;;;;;12.48;3.25;;;;;;;9.89;81.01;101436.84;5014088;28;20049;-73
2020/12/21 02:48:14;;;;;;;17.00;3.70;;;;;;;9.95;80.49;101422.75;5010376;28;20065;-79
2020/12/21 02:50:42;;;;;;;12.93;3.30;;;;;;;9.84;80.29;101418.47;5012199;28;20061;-73
2020/12/21 02:53:16;;;;;;;14.38;3.30;;;;;;;9.75;80.88;101417.44;5030309;28;20457;-79
2020/12/21 02:55:46;;;;;;;14.65;3.53;;;;;;;9.82;80.75;101422.59;5012640;28;20053;-64
2020/12/21 02:58:13;;;;;;;14.35;3.35;;;;;;;9.56;81.63;101416.53;5012535;28;20076;-67
2020/12/21 03:00:42;;;;;;;12.10;3.28;;;;;;;9.72;81.36;101406.22;5027740;28;20698;-71
2020/12/21 03:03:11;;;;;;;12.27;3.25;;;;;;;9.78;80.98;101407.81;5014868;28;20048;-74
2020/12/21 03:05:38;;;;;;;14.68;3.17;;;;;;;9.77;81.12;101406.97;5014165;28;20515;-68
2020/12/21 03:08:06;;;;;;;17.10;3.75;;;;;;;9.79;80.95;101424.00;5031860;28;20049;-76
2020/12/21 03:10:34;;;;;;;12.57;3.28;;;;;;;9.79;80.96;101428.69;5031659;28;20060;-70
2020/12/21 03:13:01;;;;;;;15.20;3.67;;;;;;;9.81;80.52;101430.06;4998142;28;20057;-73
2020/12/21 03:15:29;;;;;;;12.57;3.03;;;;;;;9.76;81.20;101429.28;5014117;28;20074;-68
2020/12/21 03:17:56;;;;;;;12.60;3.60;;;;;;;9.64;82.37;101429.66;5031548;28;20064;-67
2020/12/21 03:20:23;;;;;;;14.93;4.00;;;;;;;9.66;81.72;101426.63;5031850;28;20052;-67
2020/12/21 03:22:51;;;;;;;11.23;2.67;;;;;;;9.69;82.14;101426.06;5031340;28;20060;-65
2020/12/21 03:25:17;;;;;;;17.73;3.45;;;;;;;9.79;81.99;101421.25;5014121;28;20056;-64
2020/12/21 03:27:44;;;;;;;10.77;2.83;;;;;;;10.14;80.15;101420.91;5031905;28;20056;-71
2020/12/21 03:30:12;;;;;;;10.57;3.15;;;;;;;9.97;80.99;101426.00;5031935;28;20049;-72
2020/12/21 03:32:39;;;;;;;12.45;3.13;;;;;;;9.91;81.32;101429.94;5013981;28;20046;-73
2020/12/21 03:35:23;;;;;;;14.82;3.17;;;;;;;9.83;81.65;101427.00;4996512;28;20527;-68
2020/12/21 03:37:50;;;;;;;13.63;4.07;;;;;;;9.87;81.31;101409.63;5020716;28;20401;-73
2020/12/21 03:40:16;;;;;;;14.70;4.05;;;;;;;9.67;81.96;101406.25;5013508;28;20053;-69
2020/12/21 03:42:43;;;;;;;13.57;3.75;;;;;;;9.61;83.13;101410.16;5030625;28;20052;-70
2020/12/21 03:45:10;;;;;;;14.13;3.25;;;;;;;9.71;82.91;101408.13;5031729;28;20050;-66
2020/12/21 03:47:37;;;;;;;14.88;3.33;;;;;;;9.68;83.27;101403.22;5031363;28;20110;-66
2020/12/21 03:50:04;;;;;;;10.85;3.25;;;;;;;9.55;83.87;101401.16;5013420;28;20497;-68
2020/12/21 03:52:32;;;;;;;11.13;3.28;;;;;;;9.45;84.61;101400.44;5013314;28;20053;-80
2020/12/21 03:54:58;;;;;;;14.88;3.53;;;;;;;9.49;84.88;101402.31;5013130;28;20093;-75
2020/12/21 03:57:25;;;;;;;15.27;3.10;;;;;;;9.57;84.65;101395.38;5031533;28;20547;-68
2020/12/21 03:59:52;;;;;;;12.25;2.97;;;;;;;9.62;84.51;101401.66;5032495;28;20061;-76
2020/12/21 04:02:21;;;;;;;10.52;3.28;;;;;;;9.62;84.58;101398.06;5031570;28;20053;-74
2020/12/21 04:04:49;;;;;;;14.07;3.30;;;;;;;9.66;84.78;101394.44;5030414;28;20049;-77
2020/12/21 04:07:15;;;;;;;8.95;2.90;;;;;;;9.63;85.10;101389.53;5033469;28;20049;-74
2020/12/21 04:09:42;;;;;;;12.23;2.70;;;;;;;9.73;84.80;101383.91;5017601;28;20149;-69
2020/12/21 04:12:09;;;;;;;14.68;3.53;;;;;;;9.54;84.70;101383.00;5033805;28;20416;-70
2020/12/21 04:14:36;;;;;;;14.52;3.28;;;;;;;9.60;85.42;101375.53;5034745;28;20049;-66
2020/12/21 04:17:04;;;;;;;12.65;3.28;;;;;;;9.72;84.66;101381.44;5034255;28;20057;-74
2020/12/21 04:19:31;;;;;;;20.48;3.42;;;;;;;9.47;85.93;101373.44;5035481;28;20042;-73
2020/12/21 04:21:58;;;;;;;17.02;3.95;;;;;;;9.73;85.68;101372.06;5034141;28;20050;-76
2020/12/21 04:24:25;;;;;;;14.35;3.33;;;;;;;9.68;85.13;101366.63;5033164;28;20497;-73
2020/12/21 04:26:51;;;;;;;15.88;3.80;;;;;;;9.65;86.15;101367.22;5033795;28;20057;-72
2020/12/21 04:29:18;;;;;;;14.55;2.97;;;;;;;9.60;85.71;101365.34;5033273;28;20540;-79
2020/12/21 04:31:45;;;;;;;14.35;3.15;;;;;;;9.58;86.07;101361.25;5034505;28;20049;-77
2020/12/21 04:34:12;;;;;;;14.32;3.42;;;;;;;9.68;85.88;101361.13;5016665;28;20386;-72
2020/12/21 04:36:39;;;;;;;15.57;3.58;;;;;;;9.65;86.26;101356.22;5032471;28;20072;-71
2020/12/21 04:39:06;;;;;;;16.45;3.40;;;;;;;9.98;84.99;101352.53;5034006;28;20064;-67
2020/12/21 04:41:33;;;;;;;18.65;3.58;;;;;;;9.95;84.68;101342.94;5033463;28;20052;-74
2020/12/21 04:44:00;;;;;;;16.48;4.25;;;;;;;9.86;85.16;101350.19;5033580;28;20060;-80
2020/12/21 04:46:27;;;;;;;15.43;3.22;;;;;;;9.55;86.29;101356.34;5016393;28;20052;-71
2020/12/21 04:48:58;;;;;;;18.05;3.75;;;;;;;9.64;86.25;101360.09;5032790;28;20065;-67
2020/12/21 04:51:32;;;;;;;14.77;3.28;;;;;;;9.59;85.98;101358.19;5015714;28;20049;-70
2020/12/21 04:53:59;;;;;;;16.75;3.78;;;;;;;9.65;86.02;101357.03;5017513;28;20053;-78
2020/12/21 04:56:26;;;;;;;16.98;3.38;;;;;;;9.61;86.49;101347.72;5034498;28;20060;-78
2020/12/21 04:58:53;;;;;;;14.48;4.10;;;;;;;9.74;85.29;101330.53;5016937;28;20057;-68
2020/12/21 05:01:20;;;;;;;10.90;3.35;;;;;;;9.82;85.54;101340.06;5016668;28;20065;-73
2020/12/21 05:03:51;;;;;;;13.98;4.00;;;;;;;9.67;85.55;101346.56;5034176;28;20045;-70
2020/12/21 05:06:21;;;;;;;12.90;3.15;;;;;;;9.58;86.73;101342.00;5016470;28;20049;-71
2020/12/21 05:09:02;;;;;;;16.80;3.45;;;;;;;9.61;86.66;101344.16;5033382;28;20053;-70
2020/12/21 05:11:29;;;;;;;14.75;3.90;;;;;;;9.54;86.93;101328.00;5014977;28;20409;-65
2020/12/21 05:14:05;;;;;;;13.90;3.67;;;;;;;9.60;87.16;101312.28;5033127;28;20049;-73
2020/12/21 05:16:32;;;;;;;16.50;3.75;;;;;;;9.53;87.00;101326.38;5032694;28;20056;-68
2020/12/21 05:18:59;;;;;;;15.52;4.50;;;;;;;9.69;86.66;101329.78;5032267;28;20045;-70
2020/12/21 05:21:27;;;;;;;16.08;4.43;;;;;;;9.66;86.88;101327.63;5015280;28;20049;-70
2020/12/21 05:23:59;;;;;;;16.58;3.67;;;;;;;9.65;86.72;101325.97;5033182;28;20512;-72
2020/12/21 05:26:28;;;;;;;14.40;3.40;;;;;;;9.71;86.92;101322.06;5014903;28;20543;-69
2020/12/21 05:28:55;;;;;;;17.05;4.38;;;;;;;9.63;86.62;101318.00;5032687;28;20045;-71
2020/12/21 05:31:22;;;;;;;12.80;3.55;;;;;;;9.57;86.58;101327.41;5015159;28;20052;-74
2020/12/21 05:33:49;;;;;;;13.32;3.88;;;;;;;9.49;87.39;101322.56;5033182;28;20046;-70
2020/12/21 05:36:18;;;;;;;13.60;3.97;;;;;;;9.50;87.08;101313.19;5013851;28;20049;-71
2020/12/21 05:38:55;;;;;;;14.95;3.58;;;;;;;9.38;87.95;101317.47;5015850;28;20048;-70
2020/12/21 05:41:22;;;;;;;12.32;3.78;;;;;;;9.50;87.57;101323.38;5015338;28;20046;-74
2020/12/21 05:43:51;;;;;;;14.43;3.45;;;;;;;9.50;87.32;101324.19;5015628;28;20049;-68
2020/12/21 05:46:23;;;;;;;14.95;3.75;;;;;;;9.42;87.76;101316.59;5014777;28;20101;-66
2020/12/21 05:48:56;;;;;;;14.18;3.88;;;;;;;9.51;87.73;101322.25;5027427;28;20055;-65
2020/12/21 05:51:31;;;;;;;12.55;3.85;;;;;;;9.60;87.50;101318.59;5031745;28;20072;-66
2020/12/21 05:54:02;;;;;;;12.55;3.60;;;;;;;9.50;87.92;101326.13;5032321;28;20493;-66
2020/12/21 05:56:31;;;;;;;18.10;4.25;;;;;;;9.42;87.60;101319.34;5015316;28;20156;-64
2020/12/21 05:58:58;;;;;;;15.77;4.30;;;;;;;9.34;88.13;101328.22;5032637;28;20054;-65
2020/12/21 06:01:26;;;;;;;16.02;4.22;;;;;;;9.45;88.20;101316.00;5031770;28;20048;-66
2020/12/21 06:04:03;;;;;;;14.15;3.88;;;;;;;9.51;88.24;101316.75;5033135;28;20049;-65
2020/12/21 06:06:34;;;;;;;13.70;4.35;;;;;;;9.34;88.68;101316.41;5031782;28;20049;-65
2020/12/21 06:09:01;;;;;;;;;;;;;;;9.38;88.36;101311.97;5032353;28;20061;-66
2020/12/21 06:11:31;;;;;;;14.48;4.22;;;;;;;9.53;88.63;101315.38;5031771;28;19921;-64
2020/12/21 06:13:58;;;;;;;15.82;3.72;;;;;;;9.53;88.09;101309.06;4998658;28;20050;-65
2020/12/21 06:16:27;;;;;;;15.00;4.10;;;;;;;9.36;88.82;101300.44;5031637;28;20053;-64
2020/12/21 06:19:05;;;;;;;14.85;4.40;;;;;;;9.57;88.46;101296.38;5030637;28;20072;-65
2020/12/21 06:21:39;;;;;;;10.10;3.65;;;;;;;9.50;88.57;101293.13;5013990;28;20060;-65
2020/12/21 06:24:25;;;;;;;12.30;3.78;;;;;;;9.56;88.85;101295.53;5033387;28;20061;-67
2020/12/21 06:26:53;;;;;;;13.15;3.88;;;;;;;9.74;87.81;101288.44;5014534;28;20064;-66
2020/12/21 06:29:25;;;;;;;11.88;4.03;;;;;;;9.68;87.19;101284.09;5031102;28;20045;-72
2020/12/21 06:32:02;;;;;;;13.82;3.90;;;;;;;9.42;87.93;101289.09;5031730;28;20092;-67
2020/12/21 06:34:29;;;;;;;14.13;3.83;;;;;;;9.43;89.18;101289.91;5014558;28;20061;-73
2020/12/21 06:37:06;;;;;;;9.90;3.97;;;;;;;9.53;88.58;101279.63;5031693;28;20061;-69
2020/12/21 06:39:35;;;;;;;14.30;4.05;;;;;;;9.69;88.07;101272.00;5030237;28;20049;-76
2020/12/21 06:42:06;;;;;;;12.38;3.67;;;;;;;9.62;87.59;101277.88;5021638;28;20409;-72
2020/12/21 06:44:36;;;;;;;11.90;3.85;;;;;;;9.64;87.77;101270.13;5002299;28;20045;-77
2020/12/21 06:47:03;;;;;;;16.42;4.18;;;;;;;9.76;87.71;101265.03;5013892;28;20052;-65
2020/12/21 06:49:29;;;;;;;13.38;3.78;;;;;;;9.61;88.23;101264.38;5028841;28;20049;-64
2020/12/21 06:51:56;;;;;;;12.00;3.97;;;;;;;9.79;87.80;101261.69;5031964;28;20140;-62
2020/12/21 06:54:23;;;;;;;12.38;3.70;;;;;;;9.92;87.34;101263.72;5029480;28;20117;-67
2020/12/21 06:56:51;;;;;;;13.05;3.72;;;;;;;9.96;86.01;101275.78;5031017;28;20049;-68
2020/12/21 06:59:23;;;;;;;13.35;3.83;;;;;;;10.01;86.27;101274.88;5031807;28;20049;-64
2020/12/21 07:01:52;;;;;;;10.98;3.55;;;;;;;9.98;86.16;101269.97;5032322;28;20041;-68
2020/12/21 07:04:23;;;;;;;11.18;3.67;;;;;;;9.77;86.43;101266.66;5032337;28;20050;-64
2020/12/21 07:06:51;;;;;;;14.93;4.22;;;;;;;9.77;87.59;101261.16;5029571;28;20496;-63
2020/12/21 07:09:27;;;;;;;13.50;4.10;;;;;;;9.86;87.09;101248.41;5031399;28;20489;-63
2020/12/21 07:11:59;;;;;;;12.65;3.38;;;;;;;9.78;87.36;101246.28;5030980;28;20369;-66
2020/12/21 07:14:28;;;;;;;9.90;3.40;;;;;;;9.74;87.46;101233.44;5031912;28;20049;-64
2020/12/21 07:17:09;;;;;;;13.63;3.95;;;;;;;9.75;86.95;101224.06;5012737;28;20061;-61
2020/12/21 07:19:37;;;;;;;13.60;3.85;;;;;;;9.67;87.97;101222.81;5028470;28;20053;-70
2020/12/21 07:22:08;;;;;;;9.27;3.72;;;;;;;9.64;88.22;101225.31;5014695;28;20057;-62
2020/12/21 07:24:36;;;;;;;11.55;3.92;;;;;;;9.79;87.57;101225.09;5014788;28;20068;-76
2020/12/21 07:27:03;;;;;;;16.45;5.47;;;;;;;9.72;87.68;101217.22;5013532;28;20053;-66
2020/12/21 07:29:38;;;;;;;14.88;4.47;;;;;;;9.69;87.77;101220.53;4997923;28;20056;-65
2020/12/21 07:32:09;;;;;;;14.02;3.80;;;;;;;9.71;87.25;101203.78;5031556;28;20057;-69
2020/12/21 07:34:38;;;;;;;13.82;3.72;;;;;;;9.79;87.10;101214.09;5014246;28;20065;-64
2020/12/21 07:37:11;;;;;;;12.07;3.83;;;;;;;9.78;87.36;101204.22;5013721;28;20058;-69
2020/12/21 07:39:38;;;;;;;10.35;3.70;;;;;;;9.83;86.64;101179.38;5032660;28;20062;-64
2020/12/21 07:42:08;;;;;;;12.95;3.67;;;;;;;9.72;87.58;101197.16;5034763;28;20049;-71
2020/12/21 07:44:37;;;;;;;10.98;3.58;;;;;;;9.60;87.53;101194.00;5014225;28;20056;-77
2020/12/21 07:47:08;;;;;;;11.10;4.13;;;;;;;9.62;88.36;101176.13;5016558;28;20528;-67
2020/12/21 07:49:36;;;;;;;54.53;18.67;;;;;;;9.59;88.32;101173.94;5032923;28;20045;-69
2020/12/21 07:52:06;;;;;;;15.57;5.22;;;;;;;9.56;88.59;101173.69;5035236;28;20060;-68
2020/12/21 07:54:37;;;;;;;10.52;4.18;;;;;;;9.68;88.12;101174.09;5018225;28;20049;-77
2020/12/21 07:57:06;;;;;;;15.15;4.78;;;;;;;9.77;87.31;101167.63;5017954;28;20060;-67
2020/12/21 07:59:33;;;;;;;11.13;3.83;;;;;;;9.64;87.93;101173.06;5009790;28;20057;-73
2020/12/21 08:02:09;;;;;;;12.02;3.63;;;;;;;9.84;87.92;101164.50;5028846;28;20049;-71
2020/12/21 08:04:36;;;;;;;9.82;3.45;;;;;;;9.84;87.21;101161.75;5034944;28;20053;-66
2020/12/21 08:07:05;;;;;;;13.63;4.50;;;;;;;9.70;87.86;101166.34;5033906;28;20045;-64
2020/12/21 08:09:37;;;;;;;12.98;4.18;;;;;;;9.79;87.50;101157.16;5016458;28;20054;-67
2020/12/21 08:12:14;;;;;;;10.35;2.97;;;;;;;9.92;86.79;101141.84;5015500;28;20055;-72
2020/12/21 08:14:43;;;;;;;11.00;4.18;;;;;;;9.83;87.00;101122.41;5033959;28;20042;-73
2020/12/21 08:17:17;;;;;;;13.73;3.40;;;;;;;9.63;88.21;101114.47;5016726;28;20050;-72
2020/12/21 08:19:54;;;;;;;9.50;3.28;;;;;;;9.74;87.81;101115.97;5033775;28;20053;-72
2020/12/21 08:22:27;;;;;;;9.60;3.90;;;;;;;9.86;87.46;101110.00;5017070;28;20401;-64
2020/12/21 08:25:11;;;;;;;10.77;3.38;;;;;;;9.71;88.10;101116.53;5034438;28;20482;-74
2020/12/21 08:27:48;;;;;;;8.98;3.15;;;;;;;9.94;87.40;101092.81;5016388;28;20045;-75
2020/12/21 08:30:25;;;;;;;11.52;3.10;;;;;;;9.61;88.25;101086.44;4999992;28;20053;-69
2020/12/21 08:32:55;;;;;;;13.73;3.95;;;;;;;9.54;88.73;101075.00;5033053;28;20041;-70
2020/12/21 08:35:29;;;;;;;9.50;2.95;;;;;;;9.66;89.06;101080.06;5026246;28;20038;-69
2020/12/21 08:38:28;;;;;;;8.15;3.00;;;;;;;9.80;88.35;101057.00;5020233;28;20057;-63
2020/12/21 08:40:55;;;;;;;10.05;3.45;;;;;;;9.68;88.72;101039.31;5012796;28;20493;-65
2020/12/21 08:43:22;;;;;;;11.13;3.85;;;;;;;9.59;88.56;101043.88;5017334;28;20044;-66
2020/12/21 08:45:50;;;;;;;8.82;3.20;;;;;;;9.37;90.06;101032.66;5012933;28;20482;-64
2020/12/21 08:48:16;;;;;;;12.27;3.58;;;;;;;9.59;90.08;101033.69;5014988;28;20042;-67
2020/12/21 08:50:43;;;;;;;10.23;3.22;;;;;;;9.47;89.60;101049.00;4989636;28;20072;-67
2020/12/21 08:53:10;;;;;;;11.35;3.00;;;;;;;9.79;89.88;101040.78;5024881;28;20060;-69
2020/12/21 08:55:37;;;;;;;9.32;3.17;;;;;;;10.01;89.97;101028.03;5028952;28;20058;-69
2020/12/21 08:58:05;;;;;;;8.05;2.70;;;;;;;9.90;89.10;101034.00;5005922;28;20386;-72
2020/12/21 09:00:32;;;;;;;11.57;3.60;;;;;;;10.04;88.67;101040.38;5027589;28;20045;-72
2020/12/21 09:02:58;;;;;;;11.27;3.65;;;;;;;10.36;88.53;101032.09;5012256;28;20160;-72
2020/12/21 09:05:26;;;;;;;9.25;2.90;;;;;;;10.34;86.79;101028.03;5032700;28;20319;-69
2020/12/21 09:07:53;;;;;;;8.90;2.80;;;;;;;10.23;85.85;101016.38;5015405;28;20053;-68
2020/12/21 09:10:20;;;;;;;9.88;2.83;;;;;;;9.91;87.63;101024.63;5032078;28;20068;-72
2020/12/21 09:12:47;;;;;;;7.53;2.42;;;;;;;9.88;87.74;101014.22;5032765;28;20045;-66
2020/12/21 09:15:14;;;;;;;8.65;2.80;;;;;;;9.91;88.14;101024.63;5032808;28;20052;-68
2020/12/21 09:17:42;;;;;;;6.00;2.50;;;;;;;9.95;87.88;101009.16;5003423;28;20121;-69
2020/12/21 09:20:09;;;;;;;9.73;2.90;;;;;;;9.94;87.66;101018.50;5031460;28;20049;-66
2020/12/21 09:22:37;;;;;;;12.07;3.10;;;;;;;9.71;88.33;101024.97;5033537;28;20060;-69
2020/12/21 09:25:05;;;;;;;10.48;3.22;;;;;;;9.94;87.70;101024.00;5014637;28;20053;-64
2020/12/21 09:27:32;;;;;;;9.48;3.15;;;;;;;9.84;87.60;101025.03;5031317;28;20053;-69
2020/12/21 09:29:58;;;;;;;8.05;2.03;;;;;;;9.83;87.96;101015.13;5032740;28;20049;-66
2020/12/21 09:32:25;;;;;;;9.38;2.45;;;;;;;9.89;87.72;101021.34;5015089;28;20060;-66
2020/12/21 09:34:52;;;;;;;8.05;2.35;;;;;;;9.86;87.76;101014.53;5031773;28;20053;-65
2020/12/21 09:37:19;;;;;;;8.13;2.53;;;;;;;9.91;87.00;101010.88;5031184;28;20057;-66
2020/12/21 09:39:47;;;;;;;8.30;2.47;;;;;;;9.88;86.99;101004.06;5011533;28;20293;-70
2020/12/21 09:42:14;;;;;;;10.02;2.80;;;;;;;9.71;87.76;101000.22;5022954;28;20046;-71
2020/12/21 09:44:42;;;;;;;8.43;2.65;;;;;;;9.97;87.46;100993.97;5026857;28;20079;-66
2020/12/21 09:47:09;;;;;;;8.60;2.90;;;;;;;9.76;87.44;101005.63;5028425;28;20053;-66
2020/12/21 09:49:36;;;;;;;10.75;2.75;;;;;;;10.00;87.23;101009.88;5027082;28;20057;-67
2020/12/21 09:52:03;;;;;;;8.52;2.55;;;;;;;9.91;86.71;101008.13;5009354;28;20077;-71
2020/12/21 09:54:30;;;;;;;9.98;3.10;;;;;;;9.88;86.94;101009.56;4994854;28;20374;-73
2020/12/21 09:56:57;;;;;;;10.73;2.85;;;;;;;10.03;86.53;101008.44;5012412;28;20362;-73
2020/12/21 09:59:24;;;;;;;8.43;2.30;;;;;;;10.04;86.30;101001.84;5011791;28;20065;-75
2020/12/21 10:01:51;;;;;;;9.63;2.67;;;;;;;9.95;86.35;100981.63;5010400;28;20065;-74
2020/12/21 10:04:18;;;;;;;8.27;2.53;;;;;;;10.05;86.08;100981.44;5011026;28;20491;-73
2020/12/21 10:06:48;;;;;;;6.38;2.53;;;;;;;9.96;85.86;100966.75;5011230;28;20057;-70
2020/12/21 10:09:28;;;;;;;7.45;2.53;;;;;;;10.03;86.82;100956.97;5011418;28;20065;-73
2020/12/21 10:11:55;;;;;;;8.45;2.80;;;;;;;10.26;85.25;100954.38;5011396;28;20389;-71
2020/12/21 10:14:25;;;;;;;7.68;2.40;;;;;;;10.41;84.67;100957.63;5011319;28;20054;-67
2020/12/21 10:16:53;;;;;;;6.15;2.25;;;;;;;10.21;84.44;100955.31;5012334;28;20061;-70
2020/12/21 10:19:21;;;;;;;8.25;2.70;;;;;;;10.20;84.99;100957.22;5011335;28;20050;-74
2020/12/21 10:21:48;;;;;;;7.63;2.75;;;;;;;9.96;86.11;100958.50;5012305;28;20061;-71
2020/12/21 10:24:15;;;;;;;10.02;2.70;;;;;;;10.18;86.25;100947.66;5012112;28;20046;-67
2020/12/21 10:26:43;;;;;;;6.00;2.45;;;;;;;10.14;85.87;100944.72;5012170;28;20053;-72
2020/12/21 10:29:10;;;;;;;5.93;2.45;;;;;;;10.26;85.72;100951.63;5012653;28;20377;-71
2020/12/21 10:31:37;;;;;;;5.85;2.63;;;;;;;10.39;85.47;100942.56;5012456;28;20049;-67
2020/12/21 10:34:04;;;;;;;3.88;1.90;;;;;;;10.42;84.38;100940.00;4975775;28;20494;-67
2020/12/21 10:36:38;;;;;;;6.93;2.30;;;;;;;10.41;84.59;100943.06;4993277;28;20058;-68
2020/12/21 10:39:05;;;;;;;8.45;1.80;;;;;;;10.66;83.82;100921.31;4991473;28;20474;-68
2020/12/21 10:41:40;;;;;;;7.85;2.20;;;;;;;10.50;83.63;100928.25;4977230;28;20401;-71
2020/12/21 10:44:10;;;;;;;7.20;1.85;;;;;;;10.49;84.07;100936.84;4991423;28;20043;-63
2020/12/21 10:46:38;;;;;;;5.45;2.28;;;;;;;10.78;83.79;100926.28;4992717;28;20076;-63
2020/12/21 10:49:08;;;;;;;5.15;1.95;;;;;;;10.63;83.70;100910.09;4992479;28;20067;-66
2020/12/21 10:51:36;;;;;;;4.65;1.50;;;;;;;10.55;84.30;100908.88;4992552;28;20057;-69
2020/12/21 10:54:05;;;;;;;4.50;1.90;;;;;;;10.58;83.88;100900.00;4993301;28;20050;-66
2020/12/21 10:56:34;;;;;;;3.97;1.80;;;;;;;10.48;83.67;100897.47;4993206;28;20062;-69
2020/12/21 10:59:01;;;;;;;5.80;2.72;;;;;;;10.57;83.70;100903.06;4993114;28;20038;-71
2020/12/21 11:01:29;;;;;;;5.15;1.92;;;;;;;10.73;83.29;100904.34;4974460;28;20050;-72
2020/12/21 11:03:57;;;;;;;6.45;1.90;;;;;;;10.66;84.18;100893.75;4979899;28;20057;-69
2020/12/21 11:06:24;;;;;;;9.98;1.60;;;;;;;10.82;83.72;100908.84;4979615;28;20371;-70
2020/12/21 11:08:52;;;;;;;4.88;1.70;;;;;;;10.85;83.56;100891.66;4993470;28;20092;-73
2020/12/21 11:11:29;;;;;;;5.00;2.00;;;;;;;10.91;83.49;100878.59;4994373;28;20043;-70
2020/12/21 11:13:56;;;;;;;5.10;1.77;;;;;;;10.85;83.53;100877.88;4992863;28;20050;-73
2020/12/21 11:16:23;;;;;;;2.97;1.30;;;;;;;10.80;83.75;100879.94;4996780;28;20043;-69
2020/12/21 11:18:53;;;;;;;5.40;1.85;;;;;;;10.87;83.94;100883.09;4996746;28;20054;-70
2020/12/21 11:21:21;;;;;;;7.38;1.70;;;;;;;10.74;83.42;100873.72;4997109;28;20054;-71
2020/12/21 11:25:52;;;;;;;4.43;1.65;;;;;;;11.04;82.76;100852.91;4916828;29;20063;-69
2020/12/21 11:28:22;;;;;;;4.30;1.40;;;;;;;10.93;83.39;100840.53;4917455;29;20047;-67
2020/12/21 11:30:48;;;;;;;4.90;1.67;;;;;;;10.99;83.01;100829.06;4917133;29;20134;-67
2020/12/21 11:33:15;;;;;;;4.20;1.90;;;;;;;11.12;82.25;100836.41;4918503;29;20484;-67
2020/12/21 11:35:43;;;;;;;5.13;1.92;;;;;;;11.17;82.14;100824.47;4935866;29;20052;-69
2020/12/21 11:42:45;;;;;;;3.55;1.67;;;;;;;11.21;82.29;100820.75;4981611;28;20062;-65